Time;durP1;ratioP1;P1;durP2;ratioP2;P2;SDS_P1;SDS_P2;PMS_P1;PMS_P2;Temp;Humidity;BMP_temperature;BMP_pressure;BME280_temperature;BME280_humidity;BME280_pressure;Samples;Min_cycle;Max_cycle;Signal;HPM_P1;HPM_P2
2023/06/23 00:00:25;;;;;;;11.17;5.20;;;;;;;19.79;56.94;100186.47;4242884;28;20307;-68
2023/06/23 00:02:52;;;;;;;14.27;5.07;;;;;;;19.85;57.15;100183.97;4225316;28;22897;-68
2023/06/23 00:05:18;;;;;;;16.03;5.03;;;;;;;19.78;57.56;100184.78;4245550;28;21272;-68
2023/06/23 00:07:45;;;;;;;15.97;5.13;;;;;;;19.73;57.79;100184.56;4240024;28;20296;-68
2023/06/23 00:10:12;;;;;;;11.77;5.07;;;;;;;19.70;58.16;100195.16;4259246;28;21143;-66
2023/06/23 00:12:41;;;;;;;10.97;5.30;;;;;;;19.73;58.21;100192.81;4268949;28;20340;-70
2023/06/23 00:15:10;;;;;;;13.97;5.50;;;;;;;19.61;58.89;100198.09;4228071;28;20936;-66
2023/06/23 00:17:38;;;;;;;10.37;5.23;;;;;;;19.56;59.27;100195.16;4223262;28;21861;-66
2023/06/23 00:20:12;;;;;;;11.63;5.47;;;;;;;19.61;59.30;100189.03;4235889;28;20235;-68
2023/06/23 00:22:40;;;;;;;13.10;5.50;;;;;;;19.56;59.47;100188.84;4235383;28;20611;-67
2023/06/23 00:25:10;;;;;;;11.20;4.67;;;;;;;19.60;59.43;100188.19;4232073;28;21124;-69
2023/06/23 00:27:38;;;;;;;8.80;5.60;;;;;;;19.55;59.71;100190.72;4233911;28;21316;-68
2023/06/23 00:30:06;;;;;;;10.83;5.47;;;;;;;19.52;60.17;100188.44;4226722;28;20568;-67
2023/06/23 00:32:33;;;;;;;11.83;5.40;;;;;;;19.55;60.05;100196.22;4236548;28;20239;-69
2023/06/23 00:35:00;;;;;;;8.83;5.37;;;;;;;19.55;60.11;100184.41;4225440;28;21005;-67
2023/06/23 00:37:29;;;;;;;8.47;5.30;;;;;;;19.49;60.72;100183.34;4226716;28;20236;-67
2023/06/23 00:39:56;;;;;;;11.03;5.63;;;;;;;19.46;60.61;100175.53;4236794;28;20253;-69
2023/06/23 00:42:23;;;;;;;10.43;5.20;;;;;;;19.42;61.00;100177.03;4240281;28;20235;-66
2023/06/23 00:44:50;;;;;;;9.27;5.33;;;;;;;19.40;60.92;100180.00;4218960;28;20268;-67
2023/06/23 00:47:17;;;;;;;8.83;5.70;;;;;;;19.37;61.23;100180.41;4229869;28;23418;-68
2023/06/23 00:49:45;;;;;;;14.67;5.10;;;;;;;19.38;61.43;100179.34;4225866;28;20227;-71
2023/06/23 00:52:11;;;;;;;13.73;5.57;;;;;;;19.42;61.47;100174.28;4223228;28;20239;-69
2023/06/23 00:54:38;;;;;;;11.60;5.43;;;;;;;19.34;61.57;100171.75;4233921;28;20234;-69
2023/06/23 00:57:05;;;;;;;7.67;4.97;;;;;;;19.33;61.35;100165.44;4235988;28;20227;-68
2023/06/23 00:59:32;;;;;;;10.87;4.90;;;;;;;19.32;61.59;100163.75;4228293;28;21279;-68
2023/06/23 01:02:01;;;;;;;11.43;5.67;;;;;;;19.29;61.49;100164.16;4227228;28;20230;-69
2023/06/23 01:04:32;;;;;;;10.60;5.13;;;;;;;19.31;61.36;100160.13;4230546;28;20234;-68
2023/06/23 01:07:26;;;;;;;8.87;5.17;;;;;;;19.36;60.53;100147.69;4236598;28;21705;-69
2023/06/23 01:10:04;;;;;;;8.37;4.97;;;;;;;19.38;60.88;100151.03;4237795;28;20238;-67
2023/06/23 01:12:39;;;;;;;8.57;4.70;;;;;;;19.34;60.29;100147.88;4233540;28;21603;-69
2023/06/23 01:15:11;;;;;;;9.10;4.87;;;;;;;19.34;60.43;100149.78;4235890;28;20249;-69
2023/06/23 01:17:47;;;;;;;11.60;5.10;;;;;;;19.27;60.30;100144.28;4233238;28;20584;-70
2023/06/23 01:20:21;;;;;;;11.63;5.03;;;;;;;19.33;59.86;100143.47;4239703;28;20459;-68
2023/06/23 01:23:14;;;;;;;8.97;4.97;;;;;;;19.31;60.12;100142.84;4237404;28;20226;-69
2023/06/23 01:26:03;;;;;;;8.43;4.70;;;;;;;19.33;59.70;100137.97;4224761;28;20317;-68
2023/06/23 01:29:08;;;;;;;8.50;4.67;;;;;;;19.32;59.70;100131.63;4218254;28;21564;-67
2023/06/23 01:32:05;;;;;;;9.07;4.90;;;;;;;19.24;59.73;100131.00;4225375;28;20621;-68
2023/06/23 01:34:38;;;;;;;8.03;4.77;;;;;;;19.32;59.54;100133.53;4215813;28;21699;-67
2023/06/23 01:37:26;;;;;;;13.43;5.03;;;;;;;19.30;59.76;100132.91;4237345;28;20227;-66
2023/06/23 01:39:56;;;;;;;9.80;4.53;;;;;;;19.27;59.75;100125.94;4227375;28;20231;-66
2023/06/23 01:42:27;;;;;;;8.07;4.37;;;;;;;19.28;59.58;100121.28;4226926;28;20228;-68
2023/06/23 01:44:55;;;;;;;8.03;4.13;;;;;;;19.29;59.52;100134.81;4231811;28;20231;-67
2023/06/23 01:47:25;;;;;;;10.20;4.57;;;;;;;19.23;60.36;100126.59;4228120;28;20305;-68
2023/06/23 01:49:52;;;;;;;7.83;4.30;;;;;;;19.20;60.14;100135.22;4216091;28;21265;-67
2023/06/23 01:52:19;;;;;;;10.73;4.40;;;;;;;19.20;60.22;100143.44;4227352;28;20665;-68
2023/06/23 01:54:48;;;;;;;8.73;4.40;;;;;;;19.22;60.23;100149.59;4236104;28;20409;-67
2023/06/23 01:57:17;;;;;;;9.27;4.33;;;;;;;19.25;60.32;100132.72;4239925;28;20236;-67
2023/06/23 01:59:44;;;;;;;11.70;4.43;;;;;;;19.31;59.97;100142.84;4256712;28;20227;-69
2023/06/23 02:02:11;;;;;;;7.67;4.30;;;;;;;19.28;60.36;100141.38;4221832;28;20466;-67
2023/06/23 02:04:40;;;;;;;9.03;4.30;;;;;;;19.26;60.73;100142.63;4223640;28;21333;-66
2023/06/23 02:07:07;;;;;;;9.10;4.20;;;;;;;19.21;60.96;100145.16;4228627;28;20297;-68
2023/06/23 02:09:35;;;;;;;6.20;4.33;;;;;;;19.20;61.17;100135.22;4217526;28;20235;-68
2023/06/23 02:12:06;;;;;;;8.83;4.37;;;;;;;19.18;61.00;100132.69;4216158;28;20246;-66
2023/06/23 02:14:34;;;;;;;15.07;4.97;;;;;;;19.20;61.11;100144.31;4219100;28;23150;-67
2023/06/23 02:17:03;;;;;;;9.20;4.23;;;;;;;19.13;61.47;100143.47;4233721;28;20227;-68
2023/06/23 02:19:31;;;;;;;8.57;5.00;;;;;;;19.14;61.57;100153.41;4223541;28;21604;-68
2023/06/23 02:21:58;;;;;;;8.40;4.87;;;;;;;19.10;61.63;100147.50;4216802;28;20224;-69
2023/06/23 02:24:26;;;;;;;8.00;4.43;;;;;;;19.11;61.84;100140.09;4224154;28;20228;-68
2023/06/23 02:26:53;;;;;;;9.83;4.60;;;;;;;19.07;61.87;100134.19;4245901;28;20237;-69
2023/06/23 02:29:20;;;;;;;8.80;4.50;;;;;;;19.07;62.31;100138.84;4241754;28;23097;-66
2023/06/23 02:31:46;;;;;;;9.60;4.20;;;;;;;19.03;62.59;100130.19;4229944;28;20238;-68
2023/06/23 02:34:13;;;;;;;9.70;4.90;;;;;;;19.04;62.84;100133.75;4261331;28;22102;-66
2023/06/23 02:36:48;;;;;;;11.03;4.63;;;;;;;19.02;62.89;100120.25;4236583;28;21694;-67
2023/06/23 02:39:18;;;;;;;10.33;4.50;;;;;;;19.06;62.48;100120.69;4246613;28;20336;-67
2023/06/23 02:41:48;;;;;;;20.10;5.20;;;;;;;19.08;62.57;100133.13;4236367;28;20607;-66
2023/06/23 02:44:18;;;;;;;11.27;4.80;;;;;;;19.10;62.48;100132.91;4227539;28;20231;-67
2023/06/23 02:46:48;;;;;;;13.83;5.00;;;;;;;19.19;62.09;100134.38;4258065;28;20240;-68
2023/06/23 02:49:18;;;;;;;12.27;4.33;;;;;;;19.32;61.88;100137.13;4217719;28;20238;-68
2023/06/23 02:51:45;;;;;;;13.60;4.90;;;;;;;19.24;62.42;100139.25;4245446;28;20276;-67
2023/06/23 02:54:17;;;;;;;9.03;4.30;;;;;;;19.23;62.52;100135.63;4247048;28;20305;-67
2023/06/23 02:56:46;;;;;;;7.27;4.60;;;;;;;19.25;62.49;100128.06;4225479;28;20250;-67
2023/06/23 02:59:16;;;;;;;7.83;4.63;;;;;;;19.28;62.44;100124.91;4239005;28;21809;-68
2023/06/23 03:01:45;;;;;;;10.90;4.60;;;;;;;19.23;62.88;100121.09;4222076;28;20238;-70
2023/06/23 03:04:11;;;;;;;8.37;4.33;;;;;;;19.25;63.26;100110.75;4239411;28;20302;-67
2023/06/23 03:06:39;;;;;;;11.00;4.53;;;;;;;19.32;62.08;100104.19;4241297;28;20319;-69
2023/06/23 03:09:06;;;;;;;11.30;4.70;;;;;;;19.40;61.92;100103.13;4248866;28;20305;-70
2023/06/23 03:11:33;;;;;;;11.20;4.90;;;;;;;19.47;61.96;100089.38;4245537;28;20335;-68
2023/06/23 03:14:00;;;;;;;9.27;4.20;;;;;;;19.53;60.95;100084.94;4212190;28;21164;-67
2023/06/23 03:16:30;;;;;;;9.07;4.27;;;;;;;19.54;60.93;100092.13;4255494;28;20230;-67
2023/06/23 03:19:15;;;;;;;10.87;4.10;;;;;;;19.62;60.40;100098.22;4237689;28;20563;-67
2023/06/23 03:21:45;;;;;;;10.17;4.17;;;;;;;19.71;59.90;100095.22;4211177;28;20307;-68
2023/06/23 03:24:13;;;;;;;15.73;4.70;;;;;;;19.76;59.78;100095.41;4243195;28;20235;-67
2023/06/23 03:26:41;;;;;;;11.53;4.53;;;;;;;19.92;58.81;100096.88;4227106;28;21565;-67
2023/06/23 03:29:10;;;;;;;7.63;3.93;;;;;;;20.00;58.75;100104.03;4217925;28;23530;-66
2023/06/23 03:31:41;;;;;;;8.57;4.57;;;;;;;20.07;58.61;100099.34;4231133;28;20224;-67
2023/06/23 03:34:07;;;;;;;10.77;4.33;;;;;;;20.21;58.11;100108.38;4235573;28;21168;-67
2023/06/23 03:36:36;;;;;;;9.67;4.27;;;;;;;20.39;57.55;100100.22;4236499;28;20350;-67
2023/06/23 03:39:20;;;;;;;6.27;4.10;;;;;;;20.47;57.35;100118.38;4232209;28;20245;-66
2023/06/23 03:41:47;;;;;;;8.97;3.93;;;;;;;20.72;56.91;100137.72;4219957;28;20509;-67
2023/06/23 03:44:19;;;;;;;10.97;3.80;;;;;;;20.88;56.22;100146.47;4233903;28;20243;-67
2023/06/23 03:47:03;;;;;;;8.77;4.20;;;;;;;21.00;56.00;100163.13;4242664;28;20234;-67
2023/06/23 03:49:40;;;;;;;8.60;3.90;;;;;;;21.15;55.78;100163.63;4259239;28;20230;-69
2023/06/23 03:52:08;;;;;;;6.37;3.40;;;;;;;21.28;55.07;100151.69;4238962;28;20308;-68
2023/06/23 03:54:37;;;;;;;11.50;4.47;;;;;;;20.94;56.09;100153.84;4229154;28;20239;-67
2023/06/23 03:57:05;;;;;;;6.60;4.10;;;;;;;20.78;56.09;100135.97;4217286;28;20376;-67
2023/06/23 03:59:32;;;;;;;11.07;4.27;;;;;;;20.69;56.14;100126.28;4236526;28;21183;-67
2023/06/23 04:02:00;;;;;;;7.23;3.73;;;;;;;20.68;55.92;100122.69;4231602;28;20307;-69
2023/06/23 04:04:27;;;;;;;7.23;3.73;;;;;;;20.78;55.27;100126.88;4231150;28;20607;-66
2023/06/23 04:06:56;;;;;;;9.40;3.70;;;;;;;20.70;55.70;100122.47;4233944;28;20296;-67
2023/06/23 04:09:24;;;;;;;11.53;3.93;;;;;;;20.74;55.69;100120.97;4232507;28;20341;-67
2023/06/23 04:11:51;;;;;;;5.77;3.53;;;;;;;20.73;55.96;100100.88;4229883;28;21407;-67
2023/06/23 04:14:19;;;;;;;16.33;4.00;;;;;;;20.69;57.22;100087.75;4229434;28;20638;-69
2023/06/23 04:16:47;;;;;;;8.10;3.50;;;;;;;20.73;57.18;100076.13;4233676;28;20234;-68
2023/06/23 04:19:15;;;;;;;8.00;3.97;;;;;;;20.89;56.75;100084.91;4231973;28;20240;-67
2023/06/23 04:21:42;;;;;;;10.23;4.60;;;;;;;20.86;56.56;100071.56;4218362;28;20235;-69
2023/06/23 04:24:10;;;;;;;8.53;3.97;;;;;;;20.97;56.31;100053.50;4226220;28;21417;-68
2023/06/23 04:26:37;;;;;;;7.63;4.00;;;;;;;21.01;56.19;100057.50;4228478;28;20447;-70
2023/06/23 04:29:06;;;;;;;8.43;3.93;;;;;;;21.16;54.96;100066.25;4229512;28;20231;-66
2023/06/23 04:31:34;;;;;;;10.00;3.93;;;;;;;21.21;54.46;100062.81;4239037;28;25401;-70
2023/06/23 04:34:00;;;;;;;8.63;4.00;;;;;;;21.40;54.21;100046.28;4226614;28;23726;-68
2023/06/23 04:36:34;;;;;;;8.43;4.20;;;;;;;21.52;53.57;100056.31;4243384;28;21088;-66
2023/06/23 04:39:12;;;;;;;6.00;3.67;;;;;;;21.61;53.68;100064.31;4232901;28;22589;-68
2023/06/23 04:41:40;;;;;;;8.53;3.40;;;;;;;21.75;53.14;100071.34;4238439;28;20331;-66
2023/06/23 04:44:09;;;;;;;7.60;3.50;;;;;;;21.94;52.95;100083.19;4251223;28;20235;-66
2023/06/23 04:46:39;;;;;;;13.87;4.10;;;;;;;22.11;52.78;100080.63;4226179;28;20245;-68
2023/06/23 04:49:08;;;;;;;8.10;4.07;;;;;;;22.46;51.66;100079.13;4242768;28;20252;-69
2023/06/23 04:51:43;;;;;;;7.57;3.73;;;;;;;22.61;51.80;100079.53;4226983;28;23719;-67
2023/06/23 04:54:21;;;;;;;8.63;4.33;;;;;;;22.90;51.58;100100.94;4237056;28;20235;-67
2023/06/23 04:56:49;;;;;;;7.63;4.17;;;;;;;23.23;50.49;100111.44;4223985;28;20638;-72
2023/06/23 04:59:20;;;;;;;7.83;3.77;;;;;;;23.43;49.06;100101.94;4224350;28;20257;-67
2023/06/23 05:01:48;;;;;;;6.23;3.87;;;;;;;23.30;49.15;100102.19;4229866;28;20652;-68
2023/06/23 05:04:15;;;;;;;9.13;3.57;;;;;;;23.06;49.39;100099.41;4232596;28;21222;-66
2023/06/23 05:06:42;;;;;;;6.93;3.37;;;;;;;22.95;49.57;100095.53;4228906;28;21889;-67
2023/06/23 05:09:12;;;;;;;8.57;3.57;;;;;;;22.63;49.62;100079.28;4244775;28;20551;-67
2023/06/23 05:11:40;;;;;;;48.53;21.43;;;;;;;22.45;50.35;100071.91;4236038;28;20298;-72
2023/06/23 05:14:07;;;;;;;10.53;3.57;;;;;;;22.38;50.92;100049.09;4241821;28;20238;-71
2023/06/23 05:16:35;;;;;;;5.67;3.13;;;;;;;22.35;50.79;100042.13;4234385;28;20322;-74
2023/06/23 05:19:03;;;;;;;6.50;3.70;;;;;;;22.21;51.29;100062.69;4225879;28;20227;-73
2023/06/23 05:21:31;;;;;;;10.77;3.60;;;;;;;22.19;51.74;100056.56;4238982;28;22579;-72
2023/06/23 05:23:58;;;;;;;8.13;3.50;;;;;;;22.53;50.56;100065.25;4234497;28;20340;-71
2023/06/23 05:26:25;;;;;;;12.50;3.63;;;;;;;22.35;51.21;100075.22;4230745;28;20298;-70
2023/06/23 05:28:56;;;;;;;11.33;3.10;;;;;;;22.65;50.96;100087.34;4245905;28;20745;-69
2023/06/23 05:31:24;;;;;;;10.13;3.70;;;;;;;22.62;50.50;100102.44;4240393;28;21717;-68
2023/06/23 05:33:51;;;;;;;8.90;3.50;;;;;;;22.69;50.64;100094.91;4222756;28;20234;-66
2023/06/23 05:36:20;;;;;;;14.27;3.80;;;;;;;22.75;50.07;100091.19;4221309;28;20275;-67
2023/06/23 05:38:47;;;;;;;5.90;3.27;;;;;;;22.88;50.43;100094.81;4234473;28;20310;-68
2023/06/23 05:41:14;;;;;;;9.83;3.33;;;;;;;23.19;49.76;100095.59;4237254;28;20560;-71
2023/06/23 05:43:41;;;;;;;12.13;3.67;;;;;;;24.01;47.89;100088.31;4228733;28;20272;-68
2023/06/23 05:46:11;;;;;;;6.40;3.53;;;;;;;24.07;47.09;100083.72;4237891;28;20615;-68
2023/06/23 05:48:44;;;;;;;6.13;3.47;;;;;;;23.35;48.78;100085.75;4230387;28;20240;-70
2023/06/23 05:51:14;;;;;;;6.90;3.67;;;;;;;23.39;48.97;100096.06;4232726;28;20272;-70
2023/06/23 05:53:42;;;;;;;7.93;3.73;;;;;;;23.72;48.52;100096.50;4228133;28;20242;-66
2023/06/23 05:56:25;;;;;;;9.43;3.87;;;;;;;24.01;47.80;100088.31;4241020;28;20267;-71
2023/06/23 05:58:55;;;;;;;7.37;3.60;;;;;;;23.92;47.54;100085.03;4215921;28;20231;-69
2023/06/23 06:01:23;;;;;;;5.23;3.27;;;;;;;23.66;48.45;100095.56;4216008;28;20298;-67
2023/06/23 06:04:08;;;;;;;21.03;3.63;;;;;;;23.42;49.17;100076.25;4227944;28;20562;-70
2023/06/23 06:06:36;;;;;;;10.77;3.53;;;;;;;23.46;48.95;100070.22;4222791;28;20369;-69
2023/06/23 06:09:04;;;;;;;9.93;4.57;;;;;;;23.45;49.51;100071.34;4231221;28;20239;-65
2023/06/23 06:11:32;;;;;;;16.03;3.33;;;;;;;23.13;49.86;100068.91;4225742;28;20244;-67
2023/06/23 06:13:59;;;;;;;6.87;3.83;;;;;;;23.08;49.99;100075.97;4227902;28;20307;-66
2023/06/23 06:16:26;;;;;;;10.27;3.60;;;;;;;23.14;50.51;100071.44;4236670;28;20317;-69
2023/06/23 06:18:53;;;;;;;10.07;4.20;;;;;;;23.05;50.42;100051.63;4229628;28;20619;-64
2023/06/23 06:21:21;;;;;;;7.43;3.63;;;;;;;23.08;50.22;100037.34;4219992;28;20278;-69
2023/06/23 06:23:49;;;;;;;8.17;3.70;;;;;;;23.03;49.92;100020.66;4227048;28;20406;-66
2023/06/23 06:26:17;;;;;;;10.57;4.10;;;;;;;22.93;50.62;100009.38;4220253;28;20361;-69
2023/06/23 06:28:45;;;;;;;12.40;4.10;;;;;;;23.08;50.53;100006.97;4208523;28;20261;-66
2023/06/23 06:31:12;;;;;;;9.53;3.83;;;;;;;22.95;51.31;100009.97;4246536;28;21350;-64
2023/06/23 06:33:40;;;;;;;18.37;4.53;;;;;;;23.00;51.22;100017.53;4214939;28;22709;-67
2023/06/23 06:36:10;;;;;;;8.40;4.10;;;;;;;23.00;51.13;100021.13;4220662;28;20231;-66
2023/06/23 06:38:37;;;;;;;8.27;3.53;;;;;;;22.90;51.06;100016.22;4238876;28;20249;-68
2023/06/23 06:41:06;;;;;;;10.33;4.00;;;;;;;22.97;51.00;100010.59;4222126;28;23080;-66
2023/06/23 06:43:36;;;;;;;7.60;4.00;;;;;;;22.94;51.60;100019.34;4222323;28;20232;-66
2023/06/23 06:46:04;;;;;;;10.63;3.87;;;;;;;22.91;51.99;100030.88;4235329;28;20230;-66
2023/06/23 06:48:33;;;;;;;12.87;4.13;;;;;;;22.84;51.98;100036.50;4218965;28;20317;-67
2023/06/23 06:51:02;;;;;;;10.80;3.83;;;;;;;22.98;52.24;100044.53;4224091;28;21764;-65
2023/06/23 06:53:29;;;;;;;10.90;3.90;;;;;;;23.19;51.12;100051.41;4221823;28;20227;-65
2023/06/23 06:55:56;;;;;;;11.20;4.03;;;;;;;23.14;52.08;100065.91;4231234;28;21980;-65
2023/06/23 06:58:23;;;;;;;8.53;4.17;;;;;;;23.08;51.42;100067.69;4211867;28;21106;-66
2023/06/23 07:00:50;;;;;;;8.67;3.87;;;;;;;23.00;52.08;100064.47;4184025;28;20271;-64
2023/06/23 07:03:16;;;;;;;7.97;3.37;;;;;;;22.98;51.95;100050.91;4230658;28;20649;-68
2023/06/23 07:05:47;;;;;;;6.90;3.93;;;;;;;23.03;52.17;100051.03;4236186;28;21652;-64
2023/06/23 07:08:14;;;;;;;8.63;4.07;;;;;;;23.25;51.42;100047.69;4285392;28;22653;-69
2023/06/23 07:10:46;;;;;;;11.57;4.37;;;;;;;23.03;52.05;100031.69;4279677;28;21391;-67
2023/06/23 07:13:13;;;;;;;11.07;3.97;;;;;;;23.13;52.06;100019.22;4241691;28;23397;-66
2023/06/23 07:15:41;;;;;;;8.23;3.80;;;;;;;22.94;52.13;100011.06;4230424;28;22029;-65
2023/06/23 07:18:08;;;;;;;10.57;3.90;;;;;;;22.91;52.97;100008.78;4277210;28;20409;-66
2023/06/23 07:20:38;;;;;;;9.83;4.00;;;;;;;23.10;52.40;100013.09;4255048;28;20235;-65
2023/06/23 07:23:05;;;;;;;9.87;4.10;;;;;;;23.22;51.94;100006.78;4250160;28;20410;-64
2023/06/23 07:25:31;;;;;;;12.57;4.00;;;;;;;23.32;52.08;99995.94;4234222;28;20246;-67
2023/06/23 07:28:01;;;;;;;8.00;4.03;;;;;;;23.25;51.97;99976.75;4272144;28;20289;-68
2023/06/23 07:30:27;;;;;;;10.37;4.07;;;;;;;23.37;52.34;99979.50;4248474;28;20470;-66
2023/06/23 07:32:54;;;;;;;14.57;4.63;;;;;;;23.34;52.70;99976.38;4222967;28;20487;-67
2023/06/23 07:35:21;;;;;;;9.20;4.53;;;;;;;23.24;52.89;99985.25;4251102;28;20282;-64
2023/06/23 07:37:47;;;;;;;15.23;4.63;;;;;;;23.42;52.66;99998.91;4243406;28;20594;-69
2023/06/23 07:40:14;;;;;;;10.57;4.57;;;;;;;23.49;53.00;100007.06;4268742;28;20223;-67
2023/06/23 07:42:41;;;;;;;11.13;4.40;;;;;;;23.40;53.21;99998.31;4223029;28;22470;-66
2023/06/23 07:45:08;;;;;;;12.37;4.97;;;;;;;23.34;53.54;100007.56;4238861;28;21619;-66
2023/06/23 07:47:36;;;;;;;13.60;5.03;;;;;;;23.30;53.90;100020.19;4245828;28;20235;-66
2023/06/23 07:50:04;;;;;;;13.13;5.17;;;;;;;23.46;53.97;100007.56;4239375;28;20230;-66
2023/06/23 07:52:31;;;;;;;16.03;5.00;;;;;;;23.40;54.37;99998.31;4234674;28;22491;-69
2023/06/23 07:54:57;;;;;;;11.53;5.70;;;;;;;23.30;54.69;99997.25;4236785;28;20233;-67
2023/06/23 07:57:25;;;;;;;10.30;4.90;;;;;;;23.19;55.61;99990.66;4221427;28;20231;-66
2023/06/23 07:59:51;;;;;;;10.57;5.47;;;;;;;23.14;56.03;99996.06;4241661;28;20362;-64
2023/06/23 08:02:18;;;;;;;13.00;4.97;;;;;;;23.05;56.41;99993.66;4274297;28;20227;-66
2023/06/23 08:04:45;;;;;;;13.47;6.30;;;;;;;22.92;57.27;99989.22;4278312;28;21784;-67
2023/06/23 08:07:13;;;;;;;12.53;6.37;;;;;;;22.91;57.39;99989.47;4311374;28;20407;-68
2023/06/23 08:09:39;;;;;;;14.50;6.37;;;;;;;22.91;57.65;99992.22;4348259;28;21807;-64
2023/06/23 08:12:07;;;;;;;11.87;6.30;;;;;;;22.78;58.96;99991.38;4285267;28;20251;-67
2023/06/23 08:14:34;;;;;;;12.53;6.27;;;;;;;22.76;58.71;99989.94;4292142;28;20246;-68
2023/06/23 08:17:02;;;;;;;11.87;6.07;;;;;;;22.84;58.58;99992.34;4314290;28;20231;-67
2023/06/23 08:19:30;;;;;;;17.33;6.60;;;;;;;22.75;59.94;99989.09;4317733;28;20247;-67
2023/06/23 08:21:57;;;;;;;19.67;6.90;;;;;;;22.73;61.03;99987.66;4356951;28;20241;-67
2023/06/23 08:24:24;;;;;;;17.60;6.90;;;;;;;22.63;62.38;99977.19;4237291;28;20858;-70
2023/06/23 08:26:51;;;;;;;16.70;7.20;;;;;;;22.34;64.57;99960.47;4231145;28;20237;-71
2023/06/23 08:29:17;;;;;;;16.27;7.70;;;;;;;22.14;67.02;99958.88;4239996;28;20266;-71
2023/06/23 08:31:44;;;;;;;16.77;7.67;;;;;;;22.05;67.61;99948.44;4237211;28;20239;-68
2023/06/23 08:34:11;;;;;;;13.60;8.23;;;;;;;21.67;70.75;99942.19;4221576;28;20232;-69
2023/06/23 08:36:37;;;;;;;17.73;7.90;;;;;;;21.65;70.01;99933.31;4243589;28;20421;-69
2023/06/23 08:39:05;;;;;;;16.37;8.40;;;;;;;21.35;71.29;99914.81;4221263;28;20231;-67
2023/06/23 08:41:34;;;;;;;18.37;8.67;;;;;;;21.34;72.82;99910.38;4226068;28;20586;-71
2023/06/23 08:44:03;;;;;;;20.77;8.07;;;;;;;21.37;71.66;99885.16;4243769;28;23019;-69
2023/06/23 08:46:33;;;;;;;16.83;9.40;;;;;;;21.14;73.15;99878.47;4242017;28;20634;-69
2023/06/23 08:49:16;;;;;;;17.63;8.40;;;;;;;21.04;74.73;99837.72;4240121;28;21297;-68
2023/06/23 08:51:43;;;;;;;19.50;9.40;;;;;;;20.84;75.92;99812.38;4227599;28;20372;-69
2023/06/23 08:54:10;;;;;;;18.27;9.50;;;;;;;20.72;76.02;99774.63;4221194;28;21693;-69
2023/06/23 08:56:37;;;;;;;19.00;10.40;;;;;;;20.62;76.31;99760.56;4236346;28;20329;-68
2023/06/23 08:59:03;;;;;;;14.97;10.20;;;;;;;20.52;77.66;99724.53;4238301;28;22956;-70
2023/06/23 09:01:30;;;;;;;21.07;10.90;;;;;;;20.39;78.06;99687.03;4232275;28;20228;-68
2023/06/23 09:03:57;;;;;;;17.00;10.37;;;;;;;20.37;78.29;99703.78;4227574;28;20239;-67
2023/06/23 09:06:24;;;;;;;21.80;11.77;;;;;;;20.28;80.49;99743.63;4237253;28;20374;-71
2023/06/23 09:08:50;;;;;;;21.27;11.70;;;;;;;20.29;80.11;99761.81;4227657;28;20246;-69
2023/06/23 09:11:17;;;;;;;17.97;12.10;;;;;;;20.27;80.82;99761.19;4234982;28;23035;-68
2023/06/23 09:13:45;;;;;;;21.17;12.43;;;;;;;20.29;81.08;99730.72;4241738;28;20242;-68
2023/06/23 09:16:12;;;;;;;23.10;12.70;;;;;;;20.19;81.80;99731.25;4229673;28;20235;-69
2023/06/23 09:18:40;;;;;;;20.20;13.00;;;;;;;20.18;81.94;99735.06;4247028;28;21552;-66
2023/06/23 09:21:08;;;;;;;24.10;12.40;;;;;;;20.19;82.72;99750.47;4227655;28;20836;-67
2023/06/23 09:23:35;;;;;;;24.13;13.93;;;;;;;20.24;82.62;99778.97;4232764;28;22484;-68
2023/06/23 09:26:03;;;;;;;20.00;14.00;;;;;;;20.25;83.25;99799.88;4229276;28;20330;-75
2023/06/23 09:28:34;;;;;;;24.30;13.50;;;;;;;20.30;82.84;99804.72;4236200;28;20417;-66
2023/06/23 09:31:13;;;;;;;23.07;14.10;;;;;;;20.29;83.12;99807.66;4212600;28;20238;-68
2023/06/23 09:33:48;;;;;;;26.30;14.83;;;;;;;20.31;84.12;99833.03;4230145;28;20233;-71
2023/06/23 09:36:15;;;;;;;28.27;16.97;;;;;;;20.30;85.33;99847.81;4236874;28;20312;-68
2023/06/23 09:38:42;;;;;;;25.33;15.37;;;;;;;20.37;86.08;99876.94;4232217;28;20231;-71
2023/06/23 09:41:18;;;;;;;21.97;14.80;;;;;;;20.39;85.78;99906.97;4232813;28;25088;-67
2023/06/23 09:43:50;;;;;;;25.43;15.80;;;;;;;20.14;86.76;99896.78;4228826;28;20226;-68
2023/06/23 09:46:19;;;;;;;21.77;15.17;;;;;;;20.12;87.07;99907.19;4231366;28;20230;-68
2023/06/23 09:48:47;;;;;;;29.83;15.27;;;;;;;20.17;87.04;99912.84;4238632;28;20222;-69
2023/06/23 09:51:13;;;;;;;22.57;14.40;;;;;;;20.25;86.83;99933.69;4238376;28;20462;-69
2023/06/23 09:53:41;;;;;;;23.33;16.13;;;;;;;20.02;88.37;99962.63;4231545;28;21653;-67
2023/06/23 09:56:19;;;;;;;22.63;15.53;;;;;;;19.95;88.57;99981.03;4224327;28;20231;-69
2023/06/23 09:58:47;;;;;;;26.27;16.43;;;;;;;19.66;90.78;99975.06;4237102;28;20513;-69
2023/06/23 10:01:16;;;;;;;27.90;16.97;;;;;;;19.66;90.69;99993.44;4219530;28;22642;-47
2023/06/23 10:03:44;;;;;;;30.30;17.27;;;;;;;19.52;91.63;100006.38;4236016;28;20244;-53
2023/06/23 10:06:35;;;;;;;26.07;17.07;;;;;;;19.50;92.35;100011.22;4223579;28;20610;-52
2023/06/23 10:09:05;;;;;;;26.97;17.67;;;;;;;19.53;92.48;100021.78;4224702;28;20238;-48
2023/06/23 10:11:34;;;;;;;28.30;18.43;;;;;;;19.34;93.14;100038.09;4233765;28;20519;-48
2023/06/23 10:14:05;;;;;;;34.57;20.90;;;;;;;19.31;93.87;100033.06;4231508;28;20232;-49
2023/06/23 10:16:35;;;;;;;32.60;21.53;;;;;;;19.40;92.73;100042.75;4228192;28;20241;-49
2023/06/23 10:19:03;;;;;;;33.83;20.43;;;;;;;19.48;92.54;100034.28;4231799;28;20466;-48
2023/06/23 10:21:33;;;;;;;35.47;20.93;;;;;;;19.47;92.88;100035.34;4224042;28;20716;-47
2023/06/23 10:24:05;;;;;;;28.17;18.63;;;;;;;19.71;92.16;100043.06;4236464;28;21941;-49
2023/06/23 10:26:34;;;;;;;31.97;19.70;;;;;;;19.79;91.68;100024.41;4238349;28;20243;-49
2023/06/23 10:29:04;;;;;;;31.87;19.50;;;;;;;19.90;91.12;100030.31;4231008;28;20288;-48
2023/06/23 10:31:31;;;;;;;29.63;18.40;;;;;;;20.08;89.75;100038.69;4233033;28;20243;-48
2023/06/23 10:33:59;;;;;;;29.47;18.20;;;;;;;20.32;89.63;100036.19;4257650;28;20241;-69
2023/06/23 10:36:27;;;;;;;27.97;18.63;;;;;;;20.38;88.42;100037.22;4225565;28;23334;-70
2023/06/23 10:38:54;;;;;;;29.57;18.63;;;;;;;20.45;87.57;100031.69;4238398;28;20231;-69
2023/06/23 10:41:23;;;;;;;26.80;17.40;;;;;;;20.53;86.93;100032.25;4228825;28;20247;-71
2023/06/23 10:43:51;;;;;;;24.50;16.67;;;;;;;20.76;85.48;100030.81;4231930;28;20231;-71
2023/06/23 10:46:18;;;;;;;25.70;15.77;;;;;;;21.29;83.51;100031.38;4227942;28;23666;-69
2023/06/23 10:48:45;;;;;;;22.20;16.10;;;;;;;21.56;82.33;100034.66;4236894;28;20236;-70
2023/06/23 10:51:12;;;;;;;25.27;15.87;;;;;;;21.33;79.79;100025.19;4238377;28;20227;-68
2023/06/23 10:54:00;;;;;;;22.70;15.43;;;;;;;21.23;82.20;100030.38;4239866;28;20313;-71
2023/06/23 10:56:32;;;;;;;23.37;14.87;;;;;;;21.34;79.66;100026.88;4238334;28;21095;-70
2023/06/23 10:58:59;;;;;;;23.10;15.00;;;;;;;21.34;77.84;100034.28;4252392;28;21603;-73
2023/06/23 11:01:26;;;;;;;23.13;15.60;;;;;;;21.31;78.38;100032.00;4248305;28;21108;-68
2023/06/23 11:03:57;;;;;;;23.70;14.93;;;;;;;21.37;79.30;100037.41;4201500;28;20941;-69
2023/06/23 11:06:35;;;;;;;21.00;14.10;;;;;;;21.74;77.76;100039.34;4244853;28;22829;-66
2023/06/23 11:09:02;;;;;;;20.40;14.53;;;;;;;21.67;77.67;100031.19;4255118;28;20243;-69
2023/06/23 11:11:33;;;;;;;22.17;13.33;;;;;;;21.75;76.74;100027.25;4238944;28;20441;-71
2023/06/23 11:14:00;;;;;;;23.03;14.27;;;;;;;21.90;73.50;100017.75;4248040;28;22044;-69
2023/06/23 11:16:37;;;;;;;23.50;13.63;;;;;;;21.83;74.35;100010.41;4252163;28;20293;-69
2023/06/23 11:19:05;;;;;;;18.20;12.77;;;;;;;22.11;73.71;100020.00;4262640;28;20281;-69
2023/06/23 11:21:33;;;;;;;18.60;13.30;;;;;;;22.31;72.83;100027.97;4227032;28;20225;-69
2023/06/23 11:24:33;;;;;;;18.70;12.77;;;;;;;22.60;69.50;100021.84;4234907;28;23274;-71
2023/06/23 11:27:02;;;;;;;21.00;13.33;;;;;;;23.22;68.55;100023.34;4214488;28;20239;-67
2023/06/23 11:29:31;;;;;;;17.10;11.83;;;;;;;23.54;68.21;100023.75;4240997;28;20239;-71